Time;durP1;ratioP1;P1;durP2;ratioP2;P2;SDS_P1;SDS_P2;PMS_P1;PMS_P2;Temp;Humidity;BMP_temperature;BMP_pressure;BME280_temperature;BME280_humidity;BME280_pressure;Samples;Min_cycle;Max_cycle;Signal;HPM_P1;HPM_P2
2024/01/02 00:00:15;;;;;;;;;;;19.40;60.90;;;;;;5074040;28;20024;-60
2024/01/02 00:02:40;;;;;;;;;;;19.40;60.90;;;;;;5074660;28;19932;-60
2024/01/02 00:05:06;;;;;;;;;;;19.40;60.90;;;;;;5056781;28;19925;-60
2024/01/02 00:07:31;;;;;;;;;;;19.40;60.90;;;;;;5073847;28;19928;-60
2024/01/02 00:09:57;;;;;;;;;;;19.40;60.80;;;;;;5056591;28;20380;-60
2024/01/02 00:12:22;;;;;;;;;;;19.40;60.90;;;;;;5075100;28;19954;-60
2024/01/02 00:14:48;;;;;;;;;;;19.40;60.80;;;;;;5073921;28;20384;-60
2024/01/02 00:17:14;;;;;;;;;;;19.30;60.80;;;;;;5074533;28;20030;-60
2024/01/02 00:19:39;;;;;;;;;;;19.30;60.80;;;;;;5056732;28;20372;-60
2024/01/02 00:22:05;;;;;;;;;;;19.30;60.80;;;;;;5073563;28;19927;-60
2024/01/02 00:24:30;;;;;;;;;;;19.30;60.80;;;;;;5074537;28;19924;-60
2024/01/02 00:26:55;;;;;;;;;;;19.30;60.80;;;;;;5074439;28;19942;-61
2024/01/02 00:29:21;;;;;;;;;;;19.30;60.80;;;;;;5073746;28;19924;-60
2024/01/02 00:31:47;;;;;;;;;;;19.30;60.80;;;;;;5074575;28;19928;-61
2024/01/02 00:34:13;;;;;;;;;;;19.30;60.80;;;;;;5056418;28;19920;-60
2024/01/02 00:36:38;;;;;;;;;;;19.30;60.80;;;;;;5073260;28;19924;-60
2024/01/02 00:39:05;;;;;;;;;;;19.30;60.70;;;;;;5074024;28;19974;-61
2024/01/02 00:41:31;;;;;;;;;;;19.20;60.70;;;;;;5056180;28;19931;-60
2024/01/02 00:43:56;;;;;;;;;;;19.30;60.70;;;;;;5055438;28;19924;-60
2024/01/02 00:46:22;;;;;;;;;;;19.20;60.60;;;;;;5056608;28;20023;-60
2024/01/02 00:48:48;;;;;;;;;;;19.20;60.60;;;;;;5074336;28;20410;-60
2024/01/02 00:51:13;;;;;;;;;;;19.20;60.60;;;;;;5073150;28;19928;-60
2024/01/02 00:53:39;;;;;;;;;;;19.20;60.60;;;;;;5055891;28;19931;-60
2024/01/02 00:56:04;;;;;;;;;;;19.20;60.90;;;;;;5072971;28;20269;-60
2024/01/02 00:58:30;;;;;;;;;;;19.20;60.60;;;;;;5065778;28;19931;-60
2024/01/02 01:00:55;;;;;;;;;;;19.20;60.60;;;;;;5093324;28;20002;-60
2024/01/02 01:03:21;;;;;;;;;;;19.20;60.60;;;;;;5075257;28;19977;-60
2024/01/02 01:05:46;;;;;;;;;;;19.20;60.50;;;;;;5089438;28;20062;-60
2024/01/02 01:08:12;;;;;;;;;;;19.20;60.60;;;;;;5073308;28;19924;-60
2024/01/02 01:10:37;;;;;;;;;;;19.20;60.50;;;;;;5054907;28;19969;-60
2024/01/02 01:13:03;;;;;;;;;;;19.10;60.50;;;;;;5055793;28;20025;-60
2024/01/02 01:15:28;;;;;;;;;;;19.10;60.50;;;;;;5054805;28;19924;-60
2024/01/02 01:17:54;;;;;;;;;;;19.10;60.50;;;;;;5054418;28;19924;-60
2024/01/02 01:20:19;;;;;;;;;;;19.10;60.50;;;;;;5073955;28;19931;-60
2024/01/02 01:22:45;;;;;;;;;;;19.10;60.50;;;;;;5055717;28;19925;-60
2024/01/02 01:25:11;;;;;;;;;;;19.10;60.50;;;;;;5072823;28;19925;-61
2024/01/02 01:27:36;;;;;;;;;;;19.10;60.50;;;;;;5053875;28;20329;-60
2024/01/02 01:30:02;;;;;;;;;;;19.10;60.40;;;;;;5053287;28;19928;-61
2024/01/02 01:32:28;;;;;;;;;;;19.00;60.30;;;;;;5052959;28;19935;-60
2024/01/02 01:34:54;;;;;;;;;;;19.10;60.40;;;;;;5054440;28;19929;-61
2024/01/02 01:37:19;;;;;;;;;;;19.00;60.40;;;;;;5072751;28;19931;-60
2024/01/02 01:39:45;;;;;;;;;;;19.00;60.40;;;;;;5054677;28;19924;-60
2024/01/02 01:42:10;;;;;;;;;;;19.00;60.30;;;;;;5055394;28;19924;-60
2024/01/02 01:44:35;;;;;;;;;;;19.00;60.30;;;;;;5073361;28;20417;-60
2024/01/02 01:47:03;;;;;;;;;;;19.00;60.30;;;;;;5072448;28;19932;-60
2024/01/02 01:49:28;;;;;;;;;;;19.00;60.30;;;;;;5055310;28;19939;-60
2024/01/02 01:51:54;;;;;;;;;;;19.00;60.30;;;;;;5038196;28;19962;-60
2024/01/02 01:54:20;;;;;;;;;;;19.00;60.90;;;;;;5054420;28;19924;-60
2024/01/02 01:56:45;;;;;;;;;;;19.00;60.30;;;;;;5055206;28;19985;-60
2024/01/02 01:59:14;;;;;;;;;;;19.00;60.30;;;;;;5054843;28;19939;-60
2024/01/02 02:01:39;;;;;;;;;;;19.00;60.30;;;;;;5072216;28;19994;-60
2024/01/02 02:04:05;;;;;;;;;;;19.00;60.30;;;;;;5072619;28;20006;-60
2024/01/02 02:06:31;;;;;;;;;;;19.00;60.30;;;;;;5054227;28;19924;-60
2024/01/02 02:08:56;;;;;;;;;;;18.90;60.20;;;;;;5072703;28;19932;-60
2024/01/02 02:11:22;;;;;;;;;;;18.90;60.20;;;;;;5073127;28;19925;-61
2024/01/02 02:13:47;;;;;;;;;;;18.90;60.20;;;;;;5072438;28;19947;-60
2024/01/02 02:16:13;;;;;;;;;;;18.90;60.20;;;;;;5072718;28;19950;-60
2024/01/02 02:18:39;;;;;;;;;;;18.90;60.30;;;;;;5063347;28;20276;-60
2024/01/02 02:21:04;;;;;;;;;;;18.90;60.20;;;;;;5072669;28;19935;-60
2024/01/02 02:23:30;;;;;;;;;;;18.90;60.20;;;;;;5093096;28;19974;-60
2024/01/02 02:25:55;;;;;;;;;;;18.90;60.20;;;;;;5076414;28;20279;-60
2024/01/02 02:28:21;;;;;;;;;;;18.90;60.20;;;;;;5095447;28;20367;-60
2024/01/02 02:30:47;;;;;;;;;;;18.90;60.20;;;;;;5062069;28;19959;-60
2024/01/02 02:33:12;;;;;;;;;;;18.90;60.20;;;;;;5096195;28;19924;-61
2024/01/02 02:35:37;;;;;;;;;;;18.90;60.20;;;;;;5094812;28;20010;-60
2024/01/02 02:38:03;;;;;;;;;;;18.90;60.20;;;;;;5093654;28;20371;-60
2024/01/02 02:40:28;;;;;;;;;;;18.90;60.20;;;;;;5078467;28;19974;-61
2024/01/02 02:42:54;;;;;;;;;;;18.90;60.20;;;;;;5094977;28;20367;-60
2024/01/02 02:45:19;;;;;;;;;;;18.90;60.20;;;;;;5096128;28;19924;-61
2024/01/02 02:47:45;;;;;;;;;;;18.90;60.20;;;;;;5094814;28;19920;-60
2024/01/02 02:50:11;;;;;;;;;;;18.90;60.20;;;;;;5095746;28;20362;-61
2024/01/02 02:52:36;;;;;;;;;;;18.90;60.20;;;;;;5078316;28;19924;-61
2024/01/02 02:55:02;;;;;;;;;;;18.90;60.10;;;;;;5077897;28;20019;-61
2024/01/02 02:57:28;;;;;;;;;;;19.00;60.20;;;;;;5095863;28;19971;-61
2024/01/02 02:59:53;;;;;;;;;;;19.00;60.20;;;;;;5096629;28;19986;-61
2024/01/02 03:02:19;;;;;;;;;;;19.00;60.20;;;;;;5078576;28;19946;-61
2024/01/02 03:04:44;;;;;;;;;;;19.00;60.20;;;;;;5076916;28;20007;-61
2024/01/02 03:07:10;;;;;;;;;;;19.00;60.20;;;;;;5095962;28;19977;-61
2024/01/02 03:09:35;;;;;;;;;;;19.00;60.20;;;;;;5096410;28;20058;-61
2024/01/02 03:12:01;;;;;;;;;;;19.00;60.20;;;;;;5095081;28;19959;-61
2024/01/02 03:14:27;;;;;;;;;;;19.00;60.20;;;;;;5096291;28;19920;-61
2024/01/02 03:16:52;;;;;;;;;;;19.00;60.10;;;;;;5077159;28;19924;-61
2024/01/02 03:19:18;;;;;;;;;;;19.00;60.10;;;;;;5095360;28;19950;-61
2024/01/02 03:21:43;;;;;;;;;;;19.00;60.10;;;;;;5096379;28;19935;-61
2024/01/02 03:24:09;;;;;;;;;;;19.00;60.10;;;;;;5076751;28;19924;-60
2024/01/02 03:26:34;;;;;;;;;;;19.00;60.10;;;;;;5096125;28;19924;-61
2024/01/02 03:29:00;;;;;;;;;;;19.00;60.10;;;;;;5095279;28;19924;-60
2024/01/02 03:31:25;;;;;;;;;;;19.00;60.10;;;;;;5095296;28;19931;-61
2024/01/02 03:33:51;;;;;;;;;;;19.00;60.10;;;;;;5076764;28;19924;-61
2024/01/02 03:36:18;;;;;;;;;;;19.00;60.00;;;;;;5095446;28;19931;-62
2024/01/02 03:38:53;;;;;;;;;;;19.00;60.00;;;;;;5093293;28;20012;-61
2024/01/02 03:41:18;;;;;;;;;;;19.10;60.10;;;;;;5095664;28;20027;-61
2024/01/02 03:43:44;;;;;;;;;;;19.00;60.00;;;;;;5077404;28;20018;-61
2024/01/02 03:46:10;;;;;;;;;;;19.00;60.00;;;;;;5094420;28;19924;-61
2024/01/02 03:48:35;;;;;;;;;;;19.10;60.00;;;;;;5077298;28;19928;-61
2024/01/02 03:51:01;;;;;;;;;;;19.10;60.00;;;;;;5077109;28;19924;-61
2024/01/02 03:53:27;;;;;;;;;;;19.10;60.00;;;;;;5094784;28;19946;-61
2024/01/02 03:55:52;;;;;;;;;;;19.10;60.00;;;;;;5077387;28;20022;-60
2024/01/02 03:58:18;;;;;;;;;;;19.10;60.00;;;;;;5095587;28;19946;-61
2024/01/02 04:00:43;;;;;;;;;;;19.10;59.90;;;;;;5094822;28;19928;-61
2024/01/02 04:03:09;;;;;;;;;;;19.10;60.00;;;;;;5076787;28;19928;-61
2024/01/02 04:05:34;;;;;;;;;;;19.10;59.90;;;;;;5077211;28;20286;-61
2024/01/02 04:08:00;;;;;;;;;;;19.10;59.90;;;;;;5093446;28;19976;-60
2024/01/02 04:10:26;;;;;;;;;;;19.20;59.90;;;;;;5093923;28;19928;-61
2024/01/02 04:12:51;;;;;;;;;;;19.20;59.90;;;;;;5072376;28;20280;-60
2024/01/02 04:15:17;;;;;;;;;;;19.20;59.90;;;;;;5074805;28;19968;-60
2024/01/02 04:17:43;;;;;;;;;;;19.20;59.90;;;;;;5056969;28;19924;-61
2024/01/02 04:20:08;;;;;;;;;;;19.20;59.80;;;;;;5073594;28;19924;-61
2024/01/02 04:22:34;;;;;;;;;;;19.20;59.80;;;;;;5056725;28;19928;-60
2024/01/02 04:24:59;;;;;;;;;;;19.30;59.80;;;;;;5091186;28;19928;-60
2024/01/02 04:27:25;;;;;;;;;;;19.30;60.40;;;;;;5092063;28;19924;-61
2024/01/02 04:29:50;;;;;;;;;;;19.30;59.80;;;;;;5074505;28;19931;-60
2024/01/02 04:32:16;;;;;;;;;;;19.30;59.70;;;;;;5055607;28;20367;-61
2024/01/02 04:34:42;;;;;;;;;;;19.30;59.80;;;;;;5074041;28;19931;-60
2024/01/02 04:37:07;;;;;;;;;;;19.30;59.80;;;;;;5074012;28;19924;-61
2024/01/02 04:39:33;;;;;;;;;;;19.30;59.70;;;;;;5074460;28;19924;-61
2024/01/02 04:41:59;;;;;;;;;;;19.40;59.70;;;;;;5073290;28;19924;-61
2024/01/02 04:44:25;;;;;;;;;;;19.40;59.70;;;;;;5056408;28;19931;-61
2024/01/02 04:46:50;;;;;;;;;;;19.40;59.70;;;;;;5074117;28;19932;-61
2024/01/02 04:49:18;;;;;;;;;;;19.40;59.70;;;;;;5073185;28;19947;-61
2024/01/02 04:51:43;;;;;;;;;;;19.40;59.70;;;;;;5074075;28;20009;-61
2024/01/02 04:54:09;;;;;;;;;;;19.50;59.80;;;;;;5056122;28;20312;-61
2024/01/02 04:56:34;;;;;;;;;;;19.40;59.60;;;;;;5073411;28;19950;-61
2024/01/02 04:59:00;;;;;;;;;;;19.50;59.60;;;;;;5055688;28;19924;-61
2024/01/02 05:01:25;;;;;;;;;;;19.50;59.60;;;;;;5074939;28;19978;-61
2024/01/02 05:03:51;;;;;;;;;;;19.50;59.60;;;;;;5054951;28;20023;-61
2024/01/02 05:06:16;;;;;;;;;;;19.50;59.60;;;;;;5073337;28;20007;-61
2024/01/02 05:08:42;;;;;;;;;;;19.50;59.50;;;;;;5055384;28;19971;-61
2024/01/02 05:11:07;;;;;;;;;;;19.50;59.50;;;;;;5055117;28;19947;-61
2024/01/02 05:13:33;;;;;;;;;;;19.50;59.50;;;;;;5073721;28;19928;-61
2024/01/02 05:15:58;;;;;;;;;;;19.50;59.50;;;;;;5073531;28;20010;-61
2024/01/02 05:18:24;;;;;;;;;;;19.50;59.50;;;;;;5055034;28;19936;-61
2024/01/02 05:20:49;;;;;;;;;;;19.50;59.40;;;;;;5055275;28;19969;-61
2024/01/02 05:23:15;;;;;;;;;;;19.60;59.40;;;;;;5072754;28;20390;-61
2024/01/02 05:25:40;;;;;;;;;;;19.60;59.40;;;;;;5073425;28;19925;-61
2024/01/02 05:28:06;;;;;;;;;;;19.60;59.40;;;;;;5055346;28;19921;-61
2024/01/02 05:30:31;;;;;;;;;;;19.60;59.40;;;;;;5072614;28;19978;-61
2024/01/02 05:32:57;;;;;;;;;;;19.70;59.40;;;;;;5055018;28;19983;-60
2024/01/02 05:35:22;;;;;;;;;;;19.60;59.30;;;;;;5055437;28;19931;-60
2024/01/02 05:37:48;;;;;;;;;;;19.70;59.30;;;;;;5054333;28;19924;-60
2024/01/02 05:40:13;;;;;;;;;;;19.70;59.30;;;;;;5054968;28;19971;-60
2024/01/02 05:42:39;;;;;;;;;;;19.70;59.30;;;;;;5055883;28;19970;-60
2024/01/02 05:45:04;;;;;;;;;;;19.70;59.30;;;;;;5073715;28;19928;-61
2024/01/02 05:47:30;;;;;;;;;;;19.70;59.30;;;;;;5055369;28;20381;-60
2024/01/02 05:49:55;;;;;;;;;;;19.70;59.30;;;;;;5073089;28;19925;-60
2024/01/02 05:52:21;;;;;;;;;;;19.70;59.30;;;;;;5072360;28;20335;-60
2024/01/02 05:54:46;;;;;;;;;;;19.70;59.20;;;;;;5072805;28;19921;-61
2024/01/02 05:57:12;;;;;;;;;;;19.70;59.20;;;;;;5054751;28;20375;-60
2024/01/02 05:59:37;;;;;;;;;;;19.70;59.20;;;;;;5054529;28;19931;-60
2024/01/02 06:02:03;;;;;;;;;;;19.80;59.30;;;;;;5072472;28;19974;-60
2024/01/02 06:04:28;;;;;;;;;;;19.70;59.20;;;;;;5073251;28;20011;-60
2024/01/02 06:06:54;;;;;;;;;;;19.80;59.20;;;;;;5071547;28;19979;-60
2024/01/02 06:09:19;;;;;;;;;;;19.80;59.20;;;;;;5073128;28;19975;-60
2024/01/02 06:11:45;;;;;;;;;;;19.70;59.20;;;;;;5055422;28;20367;-60
2024/01/02 06:14:11;;;;;;;;;;;19.80;59.20;;;;;;5053925;28;19920;-60
2024/01/02 06:16:37;;;;;;;;;;;19.80;59.20;;;;;;5073026;28;20269;-60
2024/01/02 06:19:03;;;;;;;;;;;19.80;59.20;;;;;;5072590;28;20387;-60
2024/01/02 06:21:29;;;;;;;;;;;19.80;59.10;;;;;;5054265;28;19924;-60
2024/01/02 06:23:54;;;;;;;;;;;19.80;59.20;;;;;;5054470;28;20028;-60
2024/01/02 06:26:20;;;;;;;;;;;19.80;59.10;;;;;;5055305;28;19925;-60
2024/01/02 06:28:45;;;;;;;;;;;19.80;59.10;;;;;;5072030;28;20376;-60
2024/01/02 06:31:11;;;;;;;;;;;19.80;59.10;;;;;;5072768;28;20225;-60
2024/01/02 06:33:36;;;;;;;;;;;19.80;59.00;;;;;;5071488;28;19974;-60
2024/01/02 06:36:02;;;;;;;;;;;19.80;59.00;;;;;;5068911;28;20002;-60
2024/01/02 06:38:27;;;;;;;;;;;19.80;59.00;;;;;;5092735;28;20043;-60
2024/01/02 06:40:53;;;;;;;;;;;19.80;59.00;;;;;;5090964;28;20318;-60
2024/01/02 06:43:18;;;;;;;;;;;19.80;59.00;;;;;;5092397;28;19928;-60
2024/01/02 06:45:44;;;;;;;;;;;19.90;59.00;;;;;;5091609;28;19924;-60
2024/01/02 06:48:09;;;;;;;;;;;19.90;59.00;;;;;;5092078;28;19939;-60
2024/01/02 06:50:35;;;;;;;;;;;19.90;59.00;;;;;;5074769;28;19925;-60
2024/01/02 06:53:00;;;;;;;;;;;19.90;59.70;;;;;;5092356;28;20011;-60
2024/01/02 06:55:26;;;;;;;;;;;19.90;59.00;;;;;;5091978;28;19924;-60
2024/01/02 06:57:52;;;;;;;;;;;19.90;59.00;;;;;;5092560;28;19924;-60
2024/01/02 07:00:17;;;;;;;;;;;19.90;58.90;;;;;;5092963;28;19931;-60
2024/01/02 07:02:43;;;;;;;;;;;19.90;59.00;;;;;;5073830;28;19931;-60
2024/01/02 07:05:15;;;;;;;;;;;19.90;58.90;;;;;;5074312;28;20367;-60
2024/01/02 07:07:41;;;;;;;;;;;19.90;59.00;;;;;;5074645;28;20008;-60
2024/01/02 07:10:07;;;;;;;;;;;19.90;59.00;;;;;;5091639;28;19985;-60
2024/01/02 07:12:32;;;;;;;;;;;19.90;59.00;;;;;;5092910;28;20287;-60
2024/01/02 07:14:58;;;;;;;;;;;19.90;58.90;;;;;;5096079;28;19925;-60
2024/01/02 07:17:23;;;;;;;;;;;20.00;59.00;;;;;;5095292;28;20023;-60
2024/01/02 07:19:50;;;;;;;;;;;20.00;59.00;;;;;;5078150;28;19946;-60
2024/01/02 07:22:15;;;;;;;;;;;20.00;59.00;;;;;;5077831;28;19924;-60
2024/01/02 07:24:41;;;;;;;;;;;20.00;59.00;;;;;;5095472;28;19969;-60
2024/01/02 07:27:07;;;;;;;;;;;20.00;59.00;;;;;;5095570;28;19924;-60
2024/01/02 07:29:32;;;;;;;;;;;20.00;59.00;;;;;;5096163;28;19931;-60
2024/01/02 07:31:58;;;;;;;;;;;20.00;59.00;;;;;;5076883;28;19924;-60
2024/01/02 07:34:24;;;;;;;;;;;20.00;59.00;;;;;;5096017;28;19924;-60
2024/01/02 07:36:50;;;;;;;;;;;20.00;59.00;;;;;;5095570;28;19924;-60
2024/01/02 07:39:15;;;;;;;;;;;20.00;58.90;;;;;;5094521;28;19932;-61
2024/01/02 07:41:41;;;;;;;;;;;20.00;58.90;;;;;;5095548;28;19993;-60
2024/01/02 07:44:07;;;;;;;;;;;20.00;58.90;;;;;;5094676;28;20334;-61
2024/01/02 07:46:32;;;;;;;;;;;20.00;58.90;;;;;;5077768;28;20288;-61
2024/01/02 07:48:58;;;;;;;;;;;20.00;58.90;;;;;;5095695;28;20264;-61
2024/01/02 07:51:23;;;;;;;;;;;20.00;58.90;;;;;;5094507;28;19924;-61
2024/01/02 07:53:49;;;;;;;;;;;20.10;59.00;;;;;;5095495;28;19931;-61
2024/01/02 07:56:17;;;;;;;;;;;20.00;58.90;;;;;;5095106;28;19939;-61
2024/01/02 07:58:42;;;;;;;;;;;20.10;59.00;;;;;;5076657;28;20283;-61
2024/01/02 08:01:08;;;;;;;;;;;20.00;59.00;;;;;;5095212;28;19946;-61
2024/01/02 08:03:33;;;;;;;;;;;20.10;59.10;;;;;;5095575;28;19968;-61
2024/01/02 08:05:59;;;;;;;;;;;20.10;59.20;;;;;;5094033;28;19925;-60
2024/01/02 08:08:24;;;;;;;;;;;20.10;59.20;;;;;;5082629;28;19975;-60
2024/01/02 08:10:49;;;;;;;;;;;20.10;59.20;;;;;;5085436;28;19924;-60
2024/01/02 08:13:15;;;;;;;;;;;20.10;59.20;;;;;;5083682;28;19925;-61
2024/01/02 08:15:40;;;;;;;;;;;20.10;59.30;;;;;;5065643;28;19978;-61
2024/01/02 08:18:06;;;;;;;;;;;20.10;59.40;;;;;;5067978;28;19924;-60
2024/01/02 08:20:32;;;;;;;;;;;20.10;59.50;;;;;;5074622;28;19924;-61
2024/01/02 08:22:57;;;;;;;;;;;20.10;59.70;;;;;;5093706;28;19924;-61
2024/01/02 08:25:23;;;;;;;;;;;20.10;59.80;;;;;;5094628;28;19925;-60
2024/01/02 08:27:50;;;;;;;;;;;20.10;59.90;;;;;;5075980;28;19968;-61
2024/01/02 08:30:15;;;;;;;;;;;20.20;60.00;;;;;;5094388;28;19928;-61
2024/01/02 08:32:41;;;;;;;;;;;20.20;60.00;;;;;;5071727;28;19931;-61
2024/01/02 08:35:06;;;;;;;;;;;20.20;60.10;;;;;;5073133;28;19931;-61
2024/01/02 08:37:32;;;;;;;;;;;20.20;60.20;;;;;;5078180;28;19924;-61
2024/01/02 08:39:57;;;;;;;;;;;20.20;60.20;;;;;;5093949;28;19999;-61
2024/01/02 08:42:23;;;;;;;;;;;20.20;60.20;;;;;;5075641;28;19935;-60
2024/01/02 08:44:48;;;;;;;;;;;20.20;60.30;;;;;;5057485;28;20014;-61
2024/01/02 08:47:14;;;;;;;;;;;20.20;60.40;;;;;;5055682;28;19978;-61
2024/01/02 08:49:39;;;;;;;;;;;20.20;60.40;;;;;;5073880;28;19951;-61
2024/01/02 08:52:05;;;;;;;;;;;20.20;60.40;;;;;;5055895;28;19950;-60
2024/01/02 08:54:31;;;;;;;;;;;20.20;60.40;;;;;;5073421;28;20015;-61
2024/01/02 08:56:56;;;;;;;;;;;20.30;60.60;;;;;;5073778;28;20340;-61
2024/01/02 08:59:22;;;;;;;;;;;20.30;60.50;;;;;;5074058;28;19924;-61
2024/01/02 09:01:51;;;;;;;;;;;20.30;60.10;;;;;;5055377;28;19924;-61
2024/01/02 09:04:17;;;;;;;;;;;20.30;60.30;;;;;;5074052;28;19924;-60
2024/01/02 09:06:42;;;;;;;;;;;20.30;60.30;;;;;;5074116;28;19970;-61
2024/01/02 09:09:08;;;;;;;;;;;20.30;60.40;;;;;;5054607;28;19924;-60
2024/01/02 09:11:34;;;;;;;;;;;20.30;60.50;;;;;;5060223;28;19979;-61
2024/01/02 09:14:00;;;;;;;;;;;20.30;60.60;;;;;;5072957;28;20415;-61
2024/01/02 09:16:31;;;;;;;;;;;20.30;60.60;;;;;;5072986;28;20334;-60
2024/01/02 09:18:57;;;;;;;;;;;20.30;60.60;;;;;;5087689;28;19969;-60
2024/01/02 09:21:22;;;;;;;;;;;20.30;60.60;;;;;;5092350;28;19928;-60
2024/01/02 09:23:48;;;;;;;;;;;20.30;60.50;;;;;;5060913;28;19973;-61
2024/01/02 09:26:14;;;;;;;;;;;20.30;60.50;;;;;;5079129;28;19977;-61
2024/01/02 09:28:39;;;;;;;;;;;20.30;60.50;;;;;;5073520;28;19925;-61
2024/01/02 09:31:05;;;;;;;;;;;20.30;60.60;;;;;;5062070;28;19928;-61
2024/01/02 09:33:30;;;;;;;;;;;20.30;60.70;;;;;;5090010;28;19947;-61
2024/01/02 09:35:55;;;;;;;;;;;20.30;60.60;;;;;;5052403;28;20383;-61
2024/01/02 09:38:24;;;;;;;;;;;20.30;60.70;;;;;;5079994;28;19924;-61
2024/01/02 09:40:52;;;;;;;;;;;20.30;60.70;;;;;;5084485;28;19933;-61
2024/01/02 09:43:21;;;;;;;;;;;20.30;60.70;;;;;;5061406;28;20382;-61
2024/01/02 09:45:56;;;;;;;;;;;20.30;60.70;;;;;;5084674;28;19967;-61
2024/01/02 09:48:48;;;;;;;;;;;20.20;61.30;;;;;;5044933;28;19931;-61
2024/01/02 09:51:21;;;;;;;;;;;20.20;60.70;;;;;;5029474;28;19925;-61
2024/01/02 09:54:00;;;;;;;;;;;20.20;60.80;;;;;;5073082;28;19932;-61
2024/01/02 09:56:33;;;;;;;;;;;20.20;60.70;;;;;;5066432;28;19935;-61
2024/01/02 09:59:08;;;;;;;;;;;20.20;60.80;;;;;;5071499;28;19929;-61
2024/01/02 10:01:54;;;;;;;;;;;20.20;60.90;;;;;;5055071;28;19930;-60
2024/01/02 10:04:30;;;;;;;;;;;20.20;61.10;;;;;;5055499;28;19920;-61
2024/01/02 10:07:04;;;;;;;;;;;20.20;61.10;;;;;;5072062;28;19925;-61
2024/01/02 10:09:42;;;;;;;;;;;20.20;61.10;;;;;;5072452;28;20037;-61
2024/01/02 10:12:11;;;;;;;;;;;20.20;61.10;;;;;;5072084;28;19920;-61
2024/01/02 10:14:41;;;;;;;;;;;20.20;61.20;;;;;;5054922;28;19928;-61
2024/01/02 10:17:17;;;;;;;;;;;20.20;61.20;;;;;;5064166;28;20406;-60
2024/01/02 10:19:52;;;;;;;;;;;20.20;61.20;;;;;;5046502;28;19924;-60
2024/01/02 10:22:20;;;;;;;;;;;20.20;61.20;;;;;;5079068;28;19925;-62
2024/01/02 10:24:49;;;;;;;;;;;20.20;61.10;;;;;;5081663;28;19925;-60
2024/01/02 10:27:15;;;;;;;;;;;20.20;61.10;;;;;;5070241;28;19920;-61
2024/01/02 10:29:53;;;;;;;;;;;20.20;61.10;;;;;;5072245;28;20299;-64
2024/01/02 10:32:38;;;;;;;;;;;20.20;61.10;;;;;;5054515;28;19925;-61
2024/01/02 10:35:24;;;;;;;;;;;20.20;61.10;;;;;;5053832;28;19931;-61
2024/01/02 10:38:03;;;;;;;;;;;20.20;61.10;;;;;;5057858;28;19925;-60
2024/01/02 10:40:28;;;;;;;;;;;20.20;61.10;;;;;;5054325;28;20295;-61
2024/01/02 10:43:07;;;;;;;;;;;20.20;61.10;;;;;;5072427;28;19921;-60
2024/01/02 10:45:33;;;;;;;;;;;20.20;61.10;;;;;;5054655;28;20384;-60
2024/01/02 10:48:14;;;;;;;;;;;20.20;61.10;;;;;;5074921;28;19967;-61
2024/01/02 10:50:46;;;;;;;;;;;20.20;61.10;;;;;;5046500;28;20057;-60
2024/01/02 10:53:19;;;;;;;;;;;20.20;61.10;;;;;;5095438;28;19928;-60
2024/01/02 10:55:48;;;;;;;;;;;20.20;61.40;;;;;;5077496;28;20431;-60
2024/01/02 10:58:19;;;;;;;;;;;20.20;61.50;;;;;;5094809;28;19924;-60
2024/01/02 11:00:58;;;;;;;;;;;20.10;61.60;;;;;;5078007;28;19934;-62
2024/01/02 11:03:25;;;;;;;;;;;20.10;61.60;;;;;;5077885;28;19920;-62
2024/01/02 11:06:04;;;;;;;;;;;20.20;61.60;;;;;;5078266;28;20426;-62
2024/01/02 11:08:40;;;;;;;;;;;20.20;61.80;;;;;;5079068;28;19925;-61
2024/01/02 11:11:07;;;;;;;;;;;20.10;61.80;;;;;;5069806;28;20342;-61
2024/01/02 11:13:36;;;;;;;;;;;20.10;61.90;;;;;;5081855;28;19927;-61
2024/01/02 11:16:17;;;;;;;;;;;20.20;62.00;;;;;;5059856;28;20284;-61
2024/01/02 11:18:44;;;;;;;;;;;20.20;62.00;;;;;;5085176;28;19924;-61
2024/01/02 11:21:10;;;;;;;;;;;20.20;62.10;;;;;;5067111;28;19924;-61
2024/01/02 11:23:40;;;;;;;;;;;20.20;62.10;;;;;;5085865;28;19920;-61
2024/01/02 11:26:25;;;;;;;;;;;20.10;62.00;;;;;;5090598;28;20448;-61
2024/01/02 11:28:51;;;;;;;;;;;20.10;61.90;;;;;;5060302;28;19924;-61
2024/01/02 11:31:17;;;;;;;;;;;20.10;61.90;;;;;;5077063;28;19924;-61
2024/01/02 11:33:47;;;;;;;;;;;20.10;61.90;;;;;;5069846;28;19959;-61
2024/01/02 11:36:21;;;;;;;;;;;20.10;62.00;;;;;;5075675;28;19924;-62
2024/01/02 11:38:56;;;;;;;;;;;20.10;62.00;;;;;;5077385;28;20390;-61
2024/01/02 11:41:21;;;;;;;;;;;20.10;62.60;;;;;;5077585;28;19925;-61
2024/01/02 11:44:01;;;;;;;;;;;20.10;62.00;;;;;;5095038;28;19931;-61
2024/01/02 11:46:27;;;;;;;;;;;20.10;62.00;;;;;;5077709;28;20036;-61
2024/01/02 11:49:05;;;;;;;;;;;20.10;62.00;;;;;;5077028;28;20387;-61
2024/01/02 11:51:31;;;;;;;;;;;20.10;61.90;;;;;;5072091;28;19931;-62
2024/01/02 11:54:16;;;;;;;;;;;20.00;61.90;;;;;;5067550;28;19928;-63
2024/01/02 11:56:42;;;;;;;;;;;20.00;61.90;;;;;;5043629;28;19925;-64
2024/01/02 11:59:11;;;;;;;;;;;20.00;62.00;;;;;;5083365;28;19924;-65
2024/01/02 12:01:55;;;;;;;;;;;20.00;62.10;;;;;;5085176;28;19925;-62
2024/01/02 12:04:26;;;;;;;;;;;20.00;62.30;;;;;;5061288;28;19928;-62
2024/01/02 12:06:55;;;;;;;;;;;20.00;62.30;;;;;;5067412;28;19924;-63
2024/01/02 12:09:21;;;;;;;;;;;20.00;62.30;;;;;;5061257;28;19924;-62
2024/01/02 12:11:47;;;;;;;;;;;20.00;62.30;;;;;;5040523;28;20284;-63
2024/01/02 12:14:26;;;;;;;;;;;20.00;62.30;;;;;;5093162;28;19924;-63
2024/01/02 12:16:53;;;;;;;;;;;20.00;62.20;;;;;;5060101;28;19971;-65
2024/01/02 12:19:21;;;;;;;;;;;20.00;62.20;;;;;;5114763;28;19924;-64
2024/01/02 12:21:46;;;;;;;;;;;20.00;62.20;;;;;;5097690;28;20012;-63
2024/01/02 12:24:16;;;;;;;;;;;20.00;62.20;;;;;;5047744;28;19994;-64
2024/01/02 12:26:42;;;;;;;;;;;20.00;62.30;;;;;;5073880;28;19924;-64
2024/01/02 12:29:07;;;;;;;;;;;20.00;62.40;;;;;;5056427;28;20324;-64
2024/01/02 12:31:45;;;;;;;;;;;20.00;62.60;;;;;;5056934;28;19958;-64
2024/01/02 12:34:15;;;;;;;;;;;20.00;62.60;;;;;;5047130;28;20006;-64
2024/01/02 12:36:45;;;;;;;;;;;20.00;62.70;;;;;;5080298;28;19986;-64
2024/01/02 12:39:10;;;;;;;;;;;20.00;62.70;;;;;;5055956;28;19925;-64
2024/01/02 12:41:41;;;;;;;;;;;20.00;62.70;;;;;;5073748;28;19924;-64
2024/01/02 12:44:06;;;;;;;;;;;20.00;62.80;;;;;;5063263;28;20292;-64
2024/01/02 12:46:32;;;;;;;;;;;20.00;62.70;;;;;;5073395;28;19932;-63
2024/01/02 12:49:11;;;;;;;;;;;20.00;62.80;;;;;;5073925;28;19932;-67
2024/01/02 12:51:37;;;;;;;;;;;20.00;62.80;;;;;;5056211;28;19931;-62
2024/01/02 12:54:03;;;;;;;;;;;20.00;63.00;;;;;;5054762;28;20406;-62
2024/01/02 12:56:32;;;;;;;;;;;20.00;62.80;;;;;;5073946;28;19925;-63
2024/01/02 12:59:02;;;;;;;;;;;20.00;62.90;;;;;;5054855;28;19938;-63
2024/01/02 13:01:27;;;;;;;;;;;20.10;63.50;;;;;;5073116;28;20460;-62
2024/01/02 13:03:53;;;;;;;;;;;20.20;62.80;;;;;;5055381;28;19942;-63
2024/01/02 13:06:19;;;;;;;;;;;20.30;62.60;;;;;;5056092;28;19925;-64
2024/01/02 13:08:45;;;;;;;;;;;20.20;61.70;;;;;;5075103;28;19921;-62
2024/01/02 13:11:11;;;;;;;;;;;20.20;62.40;;;;;;5082288;28;19924;-62
2024/01/02 13:13:36;;;;;;;;;;;20.20;62.60;;;;;;5050176;28;19925;-62
2024/01/02 13:16:02;;;;;;;;;;;20.20;62.70;;;;;;5063879;28;19965;-62
2024/01/02 13:18:27;;;;;;;;;;;20.20;62.70;;;;;;5065316;28;20029;-62
2024/01/02 13:20:53;;;;;;;;;;;20.20;62.80;;;;;;5082493;28;19970;-61
2024/01/02 13:23:19;;;;;;;;;;;20.20;62.90;;;;;;5084903;28;19928;-62
2024/01/02 13:25:44;;;;;;;;;;;20.20;62.90;;;;;;5064168;28;19931;-62
2024/01/02 13:28:16;;;;;;;;;;;20.20;63.00;;;;;;5082266;28;20437;-63
2024/01/02 13:30:42;;;;;;;;;;;20.20;63.10;;;;;;5082150;28;19925;-64
2024/01/02 13:33:08;;;;;;;;;;;20.20;63.10;;;;;;5081406;28;19924;-62
2024/01/02 13:35:33;;;;;;;;;;;20.20;63.10;;;;;;5082623;28;19969;-62
2024/01/02 13:37:59;;;;;;;;;;;20.20;63.60;;;;;;5062165;28;19971;-61
2024/01/02 13:40:27;;;;;;;;;;;20.20;63.00;;;;;;5054911;28;21490;-62
2024/01/02 13:43:00;;;;;;;;;;;20.20;63.00;;;;;;5075025;28;19924;-61
2024/01/02 13:45:32;;;;;;;;;;;20.20;63.00;;;;;;5083923;28;19932;-61
2024/01/02 13:48:06;;;;;;;;;;;20.20;62.90;;;;;;5082848;28;19924;-61
2024/01/02 13:50:32;;;;;;;;;;;20.20;63.00;;;;;;5081235;28;20023;-61
2024/01/02 13:53:04;;;;;;;;;;;20.20;63.00;;;;;;5081967;28;19924;-61
2024/01/02 13:55:29;;;;;;;;;;;20.20;63.00;;;;;;5063140;28;20330;-61
2024/01/02 13:57:55;;;;;;;;;;;20.20;63.20;;;;;;5078409;28;20375;-60
2024/01/02 14:00:22;;;;;;;;;;;20.20;63.30;;;;;;5082700;28;19929;-60
2024/01/02 14:02:49;;;;;;;;;;;20.20;63.40;;;;;;5063437;28;19924;-60
2024/01/02 14:05:19;;;;;;;;;;;20.30;63.60;;;;;;5081903;28;19932;-61
2024/01/02 14:07:44;;;;;;;;;;;20.20;63.60;;;;;;5083763;28;19928;-61
2024/01/02 14:10:10;;;;;;;;;;;20.30;63.60;;;;;;5081076;28;19931;-60
2024/01/02 14:12:36;;;;;;;;;;;20.30;63.60;;;;;;5083234;28;19932;-60
2024/01/02 14:15:15;;;;;;;;;;;20.30;63.70;;;;;;5066116;28;19931;-60